createdAt,value
2023-04-04T00:01:14.157Z,1.92
2023-04-04T00:03:43.974Z,1.86
2023-04-04T00:06:13.215Z,1.85
2023-04-04T00:08:42.600Z,1.87
2023-04-04T00:11:13.894Z,1.87
2023-04-04T00:13:43.757Z,1.83
2023-04-04T00:16:13.587Z,1.85
2023-04-04T00:18:44.131Z,1.88
2023-04-04T00:21:13.957Z,1.82
2023-04-04T00:23:43.061Z,1.78
2023-04-04T00:26:13.542Z,1.81
2023-04-04T00:28:43.265Z,1.78
2023-04-04T00:31:12.483Z,1.80
2023-04-04T00:33:41.926Z,1.82
2023-04-04T00:36:11.667Z,1.80
2023-04-04T00:38:41.186Z,1.79
2023-04-04T00:41:10.290Z,1.77
2023-04-04T00:43:41.392Z,1.82
2023-04-04T00:46:15.122Z,1.82
2023-04-04T00:48:44.877Z,1.79
2023-04-04T00:51:14.009Z,1.77
2023-04-04T00:53:48.035Z,1.76
2023-04-04T00:56:17.739Z,1.75
2023-04-04T00:58:48.690Z,1.70
2023-04-04T01:01:19.387Z,1.78
2023-04-04T01:03:49.091Z,1.81
2023-04-04T01:06:18.295Z,1.83
2023-04-04T01:08:49.705Z,1.78
2023-04-04T01:11:19.105Z,1.78
2023-04-04T01:13:50.135Z,1.73
2023-04-04T01:16:21.627Z,1.72
2023-04-04T01:18:52.208Z,1.71
2023-04-04T01:21:22.796Z,1.73
2023-04-04T01:24:01.298Z,1.67
2023-04-04T01:26:58.181Z,1.68
2023-04-04T01:29:27.785Z,1.66
2023-04-04T01:32:02.038Z,1.70
2023-04-04T01:34:36.182Z,1.72
2023-04-04T01:37:12.545Z,1.66
2023-04-04T01:39:45.998Z,1.64
2023-04-04T01:42:20.045Z,1.69
2023-04-04T01:44:57.777Z,1.62
2023-04-04T01:47:40.244Z,1.62
2023-04-04T01:50:12.604Z,1.59
2023-04-04T01:52:42.192Z,1.55
2023-04-04T01:55:12.594Z,1.61
2023-04-04T01:57:43.245Z,1.57
2023-04-04T02:00:15.862Z,1.56
2023-04-04T02:02:47.317Z,1.54
2023-04-04T02:05:17.943Z,1.61
2023-04-04T02:07:48.554Z,1.57
2023-04-04T02:10:26.769Z,1.54
2023-04-04T02:12:58.137Z,1.52
2023-04-04T02:15:27.909Z,1.54
2023-04-04T02:17:58.866Z,1.55
2023-04-04T02:20:30.506Z,1.56
2023-04-04T02:22:59.713Z,1.60
2023-04-04T02:25:29.087Z,1.57
2023-04-04T02:27:59.686Z,1.53
2023-04-04T02:31:20.520Z,1.50
2023-04-04T02:33:50.120Z,1.53
2023-04-04T02:36:21.553Z,1.56
2023-04-04T02:38:53.342Z,1.59
2023-04-04T02:41:27.818Z,1.61
2023-04-04T02:44:01.244Z,1.61
2023-04-04T02:46:30.741Z,1.59
2023-04-04T02:49:05.003Z,1.63
2023-04-04T02:51:36.847Z,1.59
2023-04-04T02:54:06.404Z,1.55
2023-04-04T02:56:42.430Z,1.48
2023-04-04T02:59:13.037Z,1.43
2023-04-04T03:01:42.909Z,1.44
2023-04-04T03:04:12.785Z,1.49
2023-04-04T03:06:44.227Z,1.44
2023-04-04T03:09:13.902Z,1.48
2023-04-04T03:11:43.236Z,1.47
2023-04-04T03:14:13.915Z,1.50
2023-04-04T03:16:43.754Z,1.55
2023-04-04T03:19:13.044Z,1.52
2023-04-04T03:21:42.517Z,1.51
2023-04-04T03:24:12.660Z,1.55
2023-04-04T03:26:42.437Z,1.47
2023-04-04T03:29:15.348Z,1.42
2023-04-04T03:31:46.626Z,1.45
2023-04-04T03:34:16.091Z,1.43
2023-04-04T03:36:46.736Z,1.45
2023-04-04T03:39:16.106Z,1.50
2023-04-04T03:41:45.749Z,1.44
2023-04-04T03:44:16.264Z,1.42
2023-04-04T03:46:45.994Z,1.41
2023-04-04T03:49:16.160Z,1.40
2023-04-04T03:51:46.029Z,1.48
2023-04-04T03:54:15.343Z,1.36
2023-04-04T03:56:44.918Z,1.37
2023-04-04T03:59:15.599Z,1.33
2023-04-04T04:01:45.634Z,1.32
2023-04-04T04:04:15.007Z,1.29
2023-04-04T04:06:45.042Z,1.30
2023-04-04T04:09:16.521Z,1.26
2023-04-04T04:11:46.016Z,1.27
2023-04-04T04:14:16.628Z,1.23
2023-04-04T04:16:46.302Z,1.24
2023-04-04T04:19:19.630Z,1.26
2023-04-04T04:21:49.875Z,1.27
2023-04-04T04:24:19.671Z,1.26
2023-04-04T04:26:49.026Z,1.23
2023-04-04T04:29:20.290Z,1.28
2023-04-04T04:31:50.115Z,1.29
2023-04-04T04:34:19.327Z,1.29
2023-04-04T04:36:50.100Z,1.30
2023-04-04T04:39:24.948Z,1.29
2023-04-04T04:42:11.987Z,1.27
2023-04-04T04:44:50.961Z,1.32
2023-04-04T04:47:20.787Z,1.38
2023-04-04T04:49:50.818Z,1.30
2023-04-04T04:52:25.490Z,1.28
2023-04-04T04:54:56.075Z,1.30
2023-04-04T04:57:27.463Z,1.26
2023-04-04T04:59:59.014Z,1.27
2023-04-04T05:02:29.969Z,1.37
2023-04-04T05:04:59.805Z,1.39
2023-04-04T05:07:30.534Z,1.41
2023-04-04T05:09:59.697Z,1.47
2023-04-04T05:12:29.446Z,1.49
2023-04-04T05:15:00.187Z,1.44
2023-04-04T05:17:29.854Z,1.43
2023-04-04T05:20:08.233Z,1.47
2023-04-04T05:22:43.442Z,1.46
2023-04-04T05:25:13.731Z,1.51
2023-04-04T05:27:49.609Z,1.53
2023-04-04T05:30:23.523Z,1.49
2023-04-04T05:33:23.366Z,1.47
2023-04-04T05:36:05.630Z,1.45
2023-04-04T05:38:39.225Z,1.46
2023-04-04T05:41:09.751Z,1.52
2023-04-04T05:43:39.653Z,1.48
2023-04-04T05:46:15.024Z,1.53
2023-04-04T05:48:50.260Z,1.54
2023-04-04T05:51:19.742Z,1.62
2023-04-04T05:53:59.195Z,1.57
2023-04-04T05:56:34.055Z,1.55
2023-04-04T05:59:06.060Z,1.77
2023-04-04T06:01:42.120Z,1.77
2023-04-04T06:04:15.644Z,1.80
2023-04-04T06:06:46.702Z,1.81
2023-04-04T06:09:16.222Z,1.91
2023-04-04T06:11:45.546Z,2.06
2023-04-04T06:14:15.808Z,2.13
2023-04-04T06:16:48.783Z,2.15
2023-04-04T06:19:21.454Z,2.21
2023-04-04T06:21:51.560Z,2.23
2023-04-04T06:24:21.038Z,2.30
2023-04-04T06:26:52.109Z,2.36
2023-04-04T06:29:26.194Z,2.41
2023-04-04T06:31:59.562Z,2.55
2023-04-04T06:34:38.525Z,2.66
2023-04-04T06:37:07.812Z,2.76
2023-04-04T06:39:43.772Z,2.90
2023-04-04T06:42:22.174Z,2.99
2023-04-04T06:44:53.721Z,3.05
2023-04-04T06:47:24.343Z,3.10
2023-04-04T06:49:54.724Z,3.16
2023-04-04T06:52:24.619Z,3.17
2023-04-04T06:54:54.361Z,3.18
2023-04-04T06:57:23.567Z,3.18
2023-04-04T06:59:52.913Z,3.11
2023-04-04T07:02:23.705Z,3.15
2023-04-04T07:04:53.405Z,3.17
2023-04-04T07:07:22.583Z,3.11
2023-04-04T07:09:52.027Z,3.14
2023-04-04T07:12:21.282Z,3.17
2023-04-04T07:14:50.630Z,3.21
2023-04-04T07:17:24.782Z,3.16
2023-04-04T07:19:56.343Z,3.16
2023-04-04T07:22:25.752Z,3.20
2023-04-04T07:24:55.312Z,3.18
2023-04-04T07:27:24.493Z,3.13
2023-04-04T07:29:54.319Z,3.08
2023-04-04T07:32:24.609Z,3.05
2023-04-04T07:34:56.017Z,3.04
2023-04-04T07:37:26.646Z,3.07
2023-04-04T07:39:56.215Z,3.10
2023-04-04T07:42:25.472Z,3.15
2023-04-04T07:44:55.177Z,3.08
2023-04-04T07:47:24.416Z,3.12
2023-04-04T07:49:55.438Z,3.15
2023-04-04T07:52:25.869Z,3.24
2023-04-04T07:54:55.441Z,3.28
2023-04-04T07:57:24.672Z,3.23
2023-04-04T07:59:54.318Z,3.22
2023-04-04T08:02:23.444Z,3.24
2023-04-04T08:04:53.258Z,3.29
2023-04-04T08:07:24.035Z,3.35
2023-04-04T08:09:53.601Z,3.41
2023-04-04T08:12:22.732Z,3.53
2023-04-04T08:14:52.947Z,3.62
2023-04-04T08:17:22.098Z,3.74
2023-04-04T08:19:51.475Z,3.78
2023-04-04T08:22:22.327Z,3.80
2023-04-04T08:24:52.310Z,3.89
2023-04-04T08:27:21.546Z,3.90
2023-04-04T08:29:50.974Z,3.99
2023-04-04T08:32:20.270Z,4.11
2023-04-04T08:34:49.970Z,4.25
2023-04-04T08:37:19.359Z,4.31
2023-04-04T08:39:50.353Z,4.47
2023-04-04T08:42:21.731Z,4.55
2023-04-04T08:44:55.355Z,4.68
2023-04-04T08:47:28.388Z,4.75
2023-04-04T08:50:01.793Z,4.82
2023-04-04T08:52:35.782Z,4.92
2023-04-04T08:55:09.997Z,4.86
2023-04-04T08:57:39.280Z,4.86
2023-04-04T09:00:10.425Z,4.92
2023-04-04T09:02:47.720Z,4.95
2023-04-04T09:05:17.741Z,4.96
2023-04-04T09:07:47.632Z,5.02
2023-04-04T09:10:18.808Z,5.07
2023-04-04T09:12:49.540Z,5.15
2023-04-04T09:15:19.246Z,5.21
2023-04-04T09:17:49.034Z,5.28
2023-04-04T09:20:40.788Z,5.31
2023-04-04T09:23:12.210Z,5.36
2023-04-04T09:28:22.330Z,5.54
2023-04-04T09:30:53.236Z,5.59
2023-04-04T09:33:25.089Z,5.61
2023-04-04T09:35:59.265Z,5.64
2023-04-04T09:38:29.988Z,5.71
2023-04-04T09:41:01.324Z,5.73
2023-04-04T09:43:34.378Z,5.72
2023-04-04T09:46:06.977Z,5.76
2023-04-04T09:48:37.193Z,5.84
2023-04-04T09:51:08.315Z,5.89
2023-04-04T09:53:38.184Z,5.93
2023-04-04T09:56:10.181Z,5.98
2023-04-04T09:58:49.332Z,6.02
2023-04-04T10:01:28.699Z,6.09
2023-04-04T10:03:59.360Z,6.13
2023-04-04T10:06:29.232Z,6.16
2023-04-04T10:08:59.518Z,6.21
2023-04-04T10:11:34.605Z,6.23
2023-04-04T10:14:04.825Z,6.25
2023-04-04T10:16:38.278Z,6.17
2023-04-04T10:19:08.797Z,6.21
2023-04-04T10:21:38.542Z,6.26
2023-04-04T10:24:10.204Z,6.28
2023-04-04T10:26:41.705Z,6.28
2023-04-04T10:29:11.252Z,6.19
2023-04-04T10:31:45.348Z,6.14
2023-04-04T10:34:21.843Z,6.18
2023-04-04T10:36:53.283Z,6.23
2023-04-04T10:39:27.354Z,6.28
2023-04-04T10:41:59.891Z,6.34
2023-04-04T10:44:33.825Z,6.35
2023-04-04T10:47:14.695Z,6.38
2023-04-04T10:49:46.345Z,6.37
2023-04-04T10:52:17.776Z,6.38
2023-04-04T10:54:47.939Z,6.36
2023-04-04T10:57:19.916Z,6.41
2023-04-04T10:59:58.959Z,6.48
2023-04-04T11:02:50.009Z,6.56
2023-04-04T11:05:24.154Z,6.61
2023-04-04T11:10:33.858Z,6.67
2023-04-04T11:13:13.674Z,6.72
2023-04-04T11:15:47.681Z,6.72
2023-04-04T11:18:30.722Z,6.72
2023-04-04T11:21:05.539Z,6.78
2023-04-04T11:24:17.133Z,6.77
2023-04-04T11:26:47.257Z,6.82
2023-04-04T11:29:44.917Z,6.81
2023-04-04T11:32:31.349Z,6.85
2023-04-04T11:35:00.943Z,6.90
2023-04-04T11:37:34.555Z,6.88
2023-04-04T11:40:12.953Z,6.88
2023-04-04T11:42:42.891Z,6.90
2023-04-04T11:45:21.018Z,6.94
2023-04-04T11:47:51.413Z,6.98
2023-04-04T11:50:21.902Z,6.94
2023-04-04T11:52:54.939Z,6.92
2023-04-04T11:55:26.684Z,6.87
2023-04-04T11:57:58.254Z,6.87
2023-04-04T12:00:35.057Z,6.89
2023-04-04T12:03:06.955Z,6.92
2023-04-04T12:05:37.073Z,6.89
2023-04-04T12:08:08.357Z,6.89
2023-04-04T12:10:38.498Z,6.86
2023-04-04T12:13:08.391Z,6.92
2023-04-04T12:15:39.860Z,6.85
2023-04-04T12:18:09.904Z,6.84
2023-04-04T12:20:42.972Z,6.84
2023-04-04T12:23:14.873Z,6.76
2023-04-04T12:25:45.186Z,6.69
2023-04-04T12:28:14.956Z,6.67
2023-04-04T12:30:46.392Z,6.69
2023-04-04T12:33:15.659Z,6.69
2023-04-04T12:35:53.860Z,6.71
2023-04-04T12:38:23.583Z,6.71
2023-04-04T12:40:53.966Z,6.81
2023-04-04T12:43:23.192Z,6.82
2023-04-04T12:45:58.699Z,6.84
2023-04-04T12:48:30.029Z,6.78
2023-04-04T12:51:00.881Z,6.77
2023-04-04T12:53:33.084Z,6.75
2023-04-04T12:56:05.079Z,6.76
2023-04-04T12:58:37.470Z,6.81
2023-04-04T13:01:09.660Z,6.79
2023-04-04T13:03:39.989Z,6.82
2023-04-04T13:06:14.535Z,6.76
2023-04-04T13:08:54.039Z,6.81
2023-04-04T13:11:24.142Z,6.83
2023-04-04T13:14:01.392Z,6.85
2023-04-04T13:16:36.040Z,6.85
2023-04-04T13:19:06.156Z,6.86
2023-04-04T13:21:36.497Z,6.95
2023-04-04T13:24:05.989Z,7.03
2023-04-04T13:26:35.185Z,7.07
2023-04-04T13:29:04.590Z,7.04
2023-04-04T13:31:35.539Z,7.10
2023-04-04T13:34:04.768Z,7.16
2023-04-04T13:36:34.233Z,7.30
2023-04-04T13:39:03.412Z,7.48
2023-04-04T13:41:32.757Z,7.71
2023-04-04T13:44:01.975Z,7.97
2023-04-04T13:46:35.453Z,8.17
2023-04-04T13:49:04.857Z,8.55
2023-04-04T13:51:34.336Z,8.96
2023-04-04T13:54:04.793Z,9.46
2023-04-04T13:56:35.809Z,9.90
2023-04-04T13:59:05.572Z,10.40
2023-04-04T14:01:36.774Z,11.02
2023-04-04T14:04:16.608Z,11.51
2023-04-04T14:06:52.986Z,11.97
2023-04-04T14:09:24.549Z,12.39
2023-04-04T14:11:54.609Z,12.65
2023-04-04T14:14:23.948Z,13.14
2023-04-04T14:16:54.761Z,13.45
2023-04-04T14:19:25.437Z,13.45
2023-04-04T14:21:55.484Z,13.66
2023-04-04T14:24:25.052Z,13.78
2023-04-04T14:26:54.614Z,14.16
2023-04-04T14:29:24.172Z,14.43
2023-04-04T14:31:56.264Z,14.50
2023-04-04T14:34:27.053Z,14.68
2023-04-04T14:36:56.949Z,14.77
2023-04-04T14:39:26.729Z,14.62
2023-04-04T14:41:56.367Z,14.65
2023-04-04T14:44:26.175Z,14.54
2023-04-04T14:46:57.167Z,14.66
2023-04-04T14:49:26.498Z,14.47
2023-04-04T14:51:55.911Z,14.59
2023-04-04T14:54:25.109Z,14.77
2023-04-04T14:56:54.460Z,14.80
2023-04-04T14:59:23.785Z,15.05
2023-04-04T15:01:53.275Z,15.22
2023-04-04T15:04:23.888Z,15.49
2023-04-04T15:06:53.659Z,15.69
2023-04-04T15:09:23.304Z,15.77
2023-04-04T15:11:52.682Z,15.93
2023-04-04T15:14:21.837Z,16.08
2023-04-04T15:16:51.106Z,16.34
2023-04-04T15:19:20.603Z,16.36
2023-04-04T15:21:51.410Z,16.43
2023-04-04T15:24:20.596Z,16.53
2023-04-04T15:26:50.839Z,16.47
2023-04-04T15:29:20.385Z,16.53
2023-04-04T15:31:50.544Z,16.77
2023-04-04T15:34:19.778Z,17.07
2023-04-04T15:36:52.099Z,17.12
2023-04-04T15:39:21.590Z,17.17
2023-04-04T15:41:51.040Z,17.32
2023-04-04T15:44:20.201Z,17.31
2023-04-04T15:46:49.288Z,17.11
2023-04-04T15:49:18.478Z,17.18
2023-04-04T15:51:47.731Z,17.10
2023-04-04T15:54:18.494Z,17.05
2023-04-04T15:56:48.151Z,17.33
2023-04-04T15:59:16.966Z,17.35
2023-04-04T16:01:47.043Z,17.16
2023-04-04T16:04:16.149Z,16.90
2023-04-04T16:06:45.349Z,16.86
2023-04-04T16:09:14.611Z,16.87
2023-04-04T16:11:45.327Z,16.83
2023-04-04T16:14:14.552Z,16.77
2023-04-04T16:16:43.691Z,16.46
2023-04-04T16:19:14.277Z,16.46
2023-04-04T16:21:44.032Z,16.34
2023-04-04T16:24:14.274Z,15.95
2023-04-04T16:26:47.494Z,15.99
2023-04-04T16:29:18.574Z,15.51
2023-04-04T16:31:48.552Z,15.22
2023-04-04T16:34:19.300Z,14.68
2023-04-04T16:36:48.809Z,14.29
2023-04-04T16:39:19.361Z,13.86
2023-04-04T16:41:50.168Z,13.44
2023-04-04T16:44:19.580Z,13.21
2023-04-04T16:46:48.940Z,12.52
2023-04-04T16:49:18.187Z,11.90
2023-04-04T16:51:47.533Z,11.41
2023-04-04T16:54:16.714Z,11.11
2023-04-04T16:56:46.118Z,10.67
2023-04-04T16:59:17.478Z,10.30
2023-04-04T17:01:49.177Z,9.77
2023-04-04T17:04:18.485Z,9.68
2023-04-04T17:06:48.887Z,9.44
2023-04-04T17:09:18.285Z,9.07
2023-04-04T17:11:47.627Z,8.78
2023-04-04T17:14:18.359Z,8.61
2023-04-04T17:16:48.136Z,8.35
2023-04-04T17:19:17.570Z,8.08
2023-04-04T17:21:47.676Z,7.76
2023-04-04T17:24:16.950Z,7.59
2023-04-04T17:26:48.103Z,7.33
2023-04-04T17:29:20.729Z,7.14
2023-04-04T17:31:50.392Z,7.00
2023-04-04T17:34:20.169Z,6.72
2023-04-04T17:36:49.616Z,6.53
2023-04-04T17:39:18.865Z,6.41
2023-04-04T17:41:48.806Z,6.28
2023-04-04T17:44:20.744Z,6.13
2023-04-04T17:46:50.679Z,5.93
2023-04-04T17:49:20.657Z,5.84
2023-04-04T17:51:51.139Z,5.63
2023-04-04T17:54:20.837Z,5.48
2023-04-04T17:56:50.569Z,5.33
2023-04-04T17:59:21.235Z,5.19
2023-04-04T18:01:52.115Z,5.06
2023-04-04T18:04:22.328Z,4.90
2023-04-04T18:06:52.430Z,4.76
2023-04-04T18:09:24.084Z,4.64
2023-04-04T18:11:53.850Z,4.50
2023-04-04T18:14:24.906Z,4.40
2023-04-04T18:16:54.697Z,4.31
2023-04-04T18:19:23.796Z,4.20
2023-04-04T18:21:59.654Z,4.07
2023-04-04T18:24:29.282Z,3.93
2023-04-04T18:26:58.865Z,3.82
2023-04-04T18:29:30.976Z,3.75
2023-04-04T18:32:02.790Z,3.66
2023-04-04T18:34:32.098Z,3.55
2023-04-04T18:37:01.904Z,3.47
2023-04-04T18:39:31.980Z,3.39
2023-04-04T18:42:03.155Z,3.33
2023-04-04T18:44:34.458Z,3.22
2023-04-04T18:47:05.310Z,3.09
2023-04-04T18:49:34.957Z,2.98
2023-04-04T18:52:04.317Z,2.87
2023-04-04T18:54:33.524Z,2.84
2023-04-04T18:57:03.271Z,2.78
2023-04-04T18:59:34.105Z,2.69
2023-04-04T19:02:05.869Z,2.65
2023-04-04T19:04:40.788Z,2.62
2023-04-04T19:07:18.361Z,2.55
2023-04-04T19:09:49.878Z,2.51
2023-04-04T19:12:19.456Z,2.47
2023-04-04T19:14:50.089Z,2.43
2023-04-04T19:17:19.817Z,2.34
2023-04-04T19:19:49.078Z,2.29
2023-04-04T19:22:18.775Z,2.32
2023-04-04T19:24:48.045Z,2.26
2023-04-04T19:27:17.553Z,2.23
2023-04-04T19:29:46.727Z,2.28
2023-04-04T19:32:19.850Z,2.14
2023-04-04T19:34:50.719Z,2.10
2023-04-04T19:37:20.339Z,2.07
2023-04-04T19:39:50.176Z,2.14
2023-04-04T19:42:26.653Z,2.02
2023-04-04T19:44:57.156Z,1.99
2023-04-04T19:47:28.184Z,1.97
2023-04-04T19:49:58.411Z,2.01
2023-04-04T19:52:27.894Z,2.07
2023-04-04T19:54:57.085Z,1.98
2023-04-04T19:57:27.445Z,1.97
2023-04-04T20:00:05.025Z,1.88
2023-04-04T20:02:52.947Z,1.90
2023-04-04T20:05:54.744Z,1.89
2023-04-04T20:08:24.244Z,1.90
2023-04-04T20:10:58.167Z,1.91
2023-04-04T20:13:27.932Z,1.91
2023-04-04T20:16:03.936Z,1.91
2023-04-04T20:18:36.850Z,1.90
2023-04-04T20:21:10.461Z,1.95
2023-04-04T20:23:48.306Z,1.92
2023-04-04T20:26:44.216Z,1.91
2023-04-04T20:29:17.439Z,1.87
2023-04-04T20:31:49.156Z,1.85
2023-04-04T20:34:42.700Z,1.89
2023-04-04T20:37:20.055Z,1.90
2023-04-04T20:39:55.581Z,1.90
2023-04-04T20:42:40.432Z,1.92
2023-04-04T20:45:47.233Z,1.95
2023-04-04T20:48:36.505Z,1.89
2023-04-04T20:51:24.017Z,1.88
2023-04-04T20:53:56.539Z,1.87
2023-04-04T20:56:55.550Z,1.83
2023-04-04T20:59:38.389Z,1.90
2023-04-04T21:02:19.985Z,1.88
2023-04-04T21:04:51.868Z,1.82
2023-04-04T21:07:42.514Z,1.91
2023-04-04T21:10:23.995Z,1.82
2023-04-04T21:12:53.920Z,1.77
2023-04-04T21:15:28.648Z,1.77
2023-04-04T21:18:01.806Z,1.78
2023-04-04T21:21:16.712Z,1.74
2023-04-04T21:23:52.748Z,1.72
2023-04-04T21:26:33.931Z,1.75
2023-04-04T21:29:06.223Z,1.77
2023-04-04T21:31:40.681Z,1.85
2023-04-04T21:34:12.807Z,1.84
2023-04-04T21:36:42.933Z,1.74
2023-04-04T21:39:15.712Z,1.76
2023-04-04T21:41:46.020Z,1.77
2023-04-04T21:44:15.652Z,1.86
2023-04-04T21:46:44.868Z,1.82
2023-04-04T21:49:16.647Z,1.84
2023-04-04T21:51:45.985Z,1.76
2023-04-04T21:54:16.796Z,1.73
2023-04-04T21:56:47.456Z,1.75
2023-04-04T21:59:17.014Z,1.72
2023-04-04T22:01:46.153Z,1.72
2023-04-04T22:04:16.086Z,1.69
2023-04-04T22:06:45.354Z,1.71
2023-04-04T22:09:16.563Z,1.72
2023-04-04T22:11:45.775Z,1.70
2023-04-04T22:14:17.818Z,1.69
2023-04-04T22:16:47.525Z,1.70
2023-04-04T22:19:16.953Z,1.71
2023-04-04T22:21:48.422Z,1.68
2023-04-04T22:24:21.358Z,1.75
2023-04-04T22:26:50.573Z,1.68
2023-04-04T22:29:20.022Z,1.69
2023-04-04T22:31:49.232Z,1.80
2023-04-04T22:34:18.731Z,1.82
2023-04-04T22:36:48.065Z,1.79
2023-04-04T22:39:20.706Z,1.80
2023-04-04T22:41:50.046Z,1.69
2023-04-04T22:44:19.424Z,1.62
2023-04-04T22:46:48.565Z,1.66
2023-04-04T22:49:17.918Z,1.68
2023-04-04T22:51:47.873Z,1.69
2023-04-04T22:54:19.075Z,1.62
2023-04-04T22:56:48.165Z,1.69
2023-04-04T22:59:17.558Z,1.72
2023-04-04T23:01:46.875Z,1.71
2023-04-04T23:04:16.737Z,1.68
2023-04-04T23:06:46.625Z,1.69
2023-04-04T23:09:16.309Z,1.72
2023-04-04T23:11:46.992Z,1.68
2023-04-04T23:14:19.534Z,1.72
2023-04-04T23:16:48.972Z,1.65
2023-04-04T23:19:18.420Z,1.61
2023-04-04T23:21:47.684Z,1.61
2023-04-04T23:24:17.132Z,1.54
2023-04-04T23:26:47.747Z,1.62
2023-04-04T23:29:17.374Z,1.74
2023-04-04T23:31:46.775Z,1.72
2023-04-04T23:34:16.133Z,1.69
2023-04-04T23:36:45.378Z,1.70
2023-04-04T23:39:15.916Z,1.68
2023-04-04T23:41:46.843Z,1.59
2023-04-04T23:44:17.606Z,1.56
2023-04-04T23:46:47.557Z,1.54
2023-04-04T23:49:17.931Z,1.58
2023-04-04T23:51:47.268Z,1.54
2023-04-04T23:54:19.024Z,1.47
2023-04-04T23:56:49.537Z,1.44
2023-04-04T23:59:18.962Z,1.44
